Terminal Aerodrome Forecast
Issued by NWS Twin Cities, MN

Home | Current Version | Previous Version | Graphics & Text | Print | Product List | Glossary On
Versions: 1 2 3 4 5 6 7 8 9 10 11 12 13 14 15 16 17 18 19 20 21 22 23 24 25 26 27 28 29 30 31 32 33
000
FTUS43 KMPX 172000 AAB
TAFMSP
TAF AMD
KMSP 172100Z 1721/1824 33014G20KT P6SM OVC030
     FM180300 34010KT P6SM OVC020
     FM181500 36006KT P6SM SCT025
     FM181800 VRB03KT P6SM SKC=

USA.gov is the U.S. government's official web portal to all federal, state and local government web resources and services.